Aviation Digital Data Service (ADDS)

Output produced by METARs form (2055 UTC 23 January 2019)
found at http://www.aviationweather.gov/metar/data/
 
METAR text: HUEN 232030Z 36003KT 9999 FEW020 FEW022CB 22/21 Q1017
Conditions at: HUEN (ENTEBBE INTL ARP, UG) observed 2030 UTC 23 January 2019
Temperature: 22.0°C (72°F)
Dewpoint: 21.0°C (70°F) [RH = 94%]
Pressure (altimeter): 30.03 inches Hg (1017.0 mb)
Winds: from the N (360 degrees) at 3 MPH (3 knots; 1.5 m/s)
Visibility: 6 or more miles (10+ km)
Ceiling: at least 12,000 feet AGL
Clouds: few clouds at 2000 feet AGL
few clouds at 2200 feet AGL
Weather: no significant weather observed at this time

METAR text: HUEN 232000Z 36003KT 9999 FEW020 FEW022CB 22/21 Q1016
Conditions at: HUEN (ENTEBBE INTL ARP, UG) observed 2000 UTC 23 January 2019
Temperature: 22.0°C (72°F)
Dewpoint: 21.0°C (70°F) [RH = 94%]
Pressure (altimeter): 30.00 inches Hg (1016.0 mb)
Winds: from the N (360 degrees) at 3 MPH (3 knots; 1.5 m/s)
Visibility: 6 or more miles (10+ km)
Ceiling: at least 12,000 feet AGL
Clouds: few clouds at 2000 feet AGL
few clouds at 2200 feet AGL
Weather: no significant weather observed at this time

METAR text: HUEN 231930Z 36004KT 9999 FEW020 FEW022CB 22/21 Q1016
Conditions at: HUEN (ENTEBBE INTL ARP, UG) observed 1930 UTC 23 January 2019
Temperature: 22.0°C (72°F)
Dewpoint: 21.0°C (70°F) [RH = 94%]
Pressure (altimeter): 30.00 inches Hg (1016.0 mb)
Winds: from the N (360 degrees) at 5 MPH (4 knots; 2.1 m/s)
Visibility: 6 or more miles (10+ km)
Ceiling: at least 12,000 feet AGL
Clouds: few clouds at 2000 feet AGL
few clouds at 2200 feet AGL
Weather: no significant weather observed at this time

METAR text: HUEN 231900Z 16004KT 9999 FEW020 FEW022CB 23/20 Q1016
Conditions at: HUEN (ENTEBBE INTL ARP, UG) observed 1900 UTC 23 January 2019
Temperature: 23.0°C (73°F)
Dewpoint: 20.0°C (68°F) [RH = 83%]
Pressure (altimeter): 30.00 inches Hg (1016.0 mb)
Winds: from the SSE (160 degrees) at 5 MPH (4 knots; 2.1 m/s)
Visibility: 6 or more miles (10+ km)
Ceiling: at least 12,000 feet AGL
Clouds: few clouds at 2000 feet AGL
few clouds at 2200 feet AGL
Weather: no significant weather observed at this time

METAR text: HUEN 231830Z 00000KT 9999 FEW020 FEW022CB 23/21 Q1016
Conditions at: HUEN (ENTEBBE INTL ARP, UG) observed 1830 UTC 23 January 2019
Temperature: 23.0°C (73°F)
Dewpoint: 21.0°C (70°F) [RH = 89%]
Pressure (altimeter): 30.00 inches Hg (1016.0 mb)
Winds: calm
Visibility: 6 or more miles (10+ km)
Ceiling: at least 12,000 feet AGL
Clouds: few clouds at 2000 feet AGL
few clouds at 2200 feet AGL
Weather: no significant weather observed at this time

METAR text: HUEN 231800Z 00000KT 9999 FEW021 FEW023CB 24/21 Q1015
Conditions at: HUEN (ENTEBBE INTL ARP, UG) observed 1800 UTC 23 January 2019
Temperature: 24.0°C (75°F)
Dewpoint: 21.0°C (70°F) [RH = 83%]
Pressure (altimeter): 29.97 inches Hg (1015.0 mb)
Winds: calm
Visibility: 6 or more miles (10+ km)
Ceiling: at least 12,000 feet AGL
Clouds: few clouds at 2100 feet AGL
few clouds at 2300 feet AGL
Weather: no significant weather observed at this time

METAR text: HUEN 231730Z 18003KT 9999 FEW021 FEW023CB 24/20 Q1015
Conditions at: HUEN (ENTEBBE INTL ARP, UG) observed 1730 UTC 23 January 2019
Temperature: 24.0°C (75°F)
Dewpoint: 20.0°C (68°F) [RH = 78%]
Pressure (altimeter): 29.97 inches Hg (1015.0 mb)
Winds: from the S (180 degrees) at 3 MPH (3 knots; 1.5 m/s)
Visibility: 6 or more miles (10+ km)
Ceiling: at least 12,000 feet AGL
Clouds: few clouds at 2100 feet AGL
few clouds at 2300 feet AGL
Weather: no significant weather observed at this time

METAR text: HUEN 231700Z 12003KT 9999 FEW021 FEW023CB 24/20 Q1015
Conditions at: HUEN (ENTEBBE INTL ARP, UG) observed 1700 UTC 23 January 2019
Temperature: 24.0°C (75°F)
Dewpoint: 20.0°C (68°F) [RH = 78%]
Pressure (altimeter): 29.97 inches Hg (1015.0 mb)
Winds: from the ESE (120 degrees) at 3 MPH (3 knots; 1.5 m/s)
Visibility: 6 or more miles (10+ km)
Ceiling: at least 12,000 feet AGL
Clouds: few clouds at 2100 feet AGL
few clouds at 2300 feet AGL
Weather: no significant weather observed at this time

METAR text: HUEN 231630Z 12003KT 9999 FEW021 FEW023CB 24/20 Q1015
Conditions at: HUEN (ENTEBBE INTL ARP, UG) observed 1630 UTC 23 January 2019
Temperature: 24.0°C (75°F)
Dewpoint: 20.0°C (68°F) [RH = 78%]
Pressure (altimeter): 29.97 inches Hg (1015.0 mb)
Winds: from the ESE (120 degrees) at 3 MPH (3 knots; 1.5 m/s)
Visibility: 6 or more miles (10+ km)
Ceiling: at least 12,000 feet AGL
Clouds: few clouds at 2100 feet AGL
few clouds at 2300 feet AGL
Weather: no significant weather observed at this time

METAR text: HUEN 231600Z 19003KT 9999 FEW022 FEW024CB 25/20 Q1015
Conditions at: HUEN (ENTEBBE INTL ARP, UG) observed 1600 UTC 23 January 2019
Temperature: 25.0°C (77°F)
Dewpoint: 20.0°C (68°F) [RH = 74%]
Pressure (altimeter): 29.97 inches Hg (1015.0 mb)
Winds: from the S (190 degrees) at 3 MPH (3 knots; 1.5 m/s)
Visibility: 6 or more miles (10+ km)
Ceiling: at least 12,000 feet AGL
Clouds: few clouds at 2200 feet AGL
few clouds at 2400 feet AGL
Weather: no significant weather observed at this time

METAR text: HUEN 231530Z 17005KT 9999 FEW022 FEW024CB 26/20 Q1014
Conditions at: HUEN (ENTEBBE INTL ARP, UG) observed 1530 UTC 23 January 2019
Temperature: 26.0°C (79°F)
Dewpoint: 20.0°C (68°F) [RH = 70%]
Pressure (altimeter): 29.94 inches Hg (1014.0 mb)
Winds: from the S (170 degrees) at 6 MPH (5 knots; 2.6 m/s)
Visibility: 6 or more miles (10+ km)
Ceiling: at least 12,000 feet AGL
Clouds: few clouds at 2200 feet AGL
few clouds at 2400 feet AGL
Weather: no significant weather observed at this time

METAR text: HUEN 231500Z 17006KT 9999 FEW022 FEW024CB 26/19 Q1014
Conditions at: HUEN (ENTEBBE INTL ARP, UG) observed 1500 UTC 23 January 2019
Temperature: 26.0°C (79°F)
Dewpoint: 19.0°C (66°F) [RH = 65%]
Pressure (altimeter): 29.94 inches Hg (1014.0 mb)
Winds: from the S (170 degrees) at 7 MPH (6 knots; 3.1 m/s)
Visibility: 6 or more miles (10+ km)
Ceiling: at least 12,000 feet AGL
Clouds: few clouds at 2200 feet AGL
few clouds at 2400 feet AGL
Weather: no significant weather observed at this time

METAR text: HUEN 231430Z 09003KT 9999 FEW022 FEW024CB 26/19 Q1014
Conditions at: HUEN (ENTEBBE INTL ARP, UG) observed 1430 UTC 23 January 2019
Temperature: 26.0°C (79°F)
Dewpoint: 19.0°C (66°F) [RH = 65%]
Pressure (altimeter): 29.94 inches Hg (1014.0 mb)
Winds: from the E (90 degrees) at 3 MPH (3 knots; 1.5 m/s)
Visibility: 6 or more miles (10+ km)
Ceiling: at least 12,000 feet AGL
Clouds: few clouds at 2200 feet AGL
few clouds at 2400 feet AGL
Weather: no significant weather observed at this time

METAR text: HUEN 231400Z 16007KT 9999 SCT020 FEW022CB 24/18 Q1014
Conditions at: HUEN (ENTEBBE INTL ARP, UG) observed 1400 UTC 23 January 2019
Temperature: 24.0°C (75°F)
Dewpoint: 18.0°C (64°F) [RH = 69%]
Pressure (altimeter): 29.94 inches Hg (1014.0 mb)
Winds: from the SSE (160 degrees) at 8 MPH (7 knots; 3.6 m/s)
Visibility: 6 or more miles (10+ km)
Ceiling: at least 12,000 feet AGL
Clouds: scattered clouds at 2000 feet AGL
few clouds at 2200 feet AGL
Weather: no significant weather observed at this time

METAR text: HUEN 231330Z 01010KT 9000 -TSRA SCT019 FEW021CB BKN100 23/18 Q1015
Conditions at: HUEN (ENTEBBE INTL ARP, UG) observed 1330 UTC 23 January 2019
Temperature: 23.0°C (73°F)
Dewpoint: 18.0°C (64°F) [RH = 73%]
Pressure (altimeter): 29.97 inches Hg (1015.0 mb)
Winds: from the N (10 degrees) at 12 MPH (10 knots; 5.1 m/s)
Visibility: 6 miles ( 9 km)
Ceiling: 10000 feet AGL
Clouds: scattered clouds at 1900 feet AGL
few clouds at 2100 feet AGL
broken clouds at 10000 feet AGL
Weather: -TSRA  (light rain associated with thunderstorm(s))

METAR text: HUEN 231300Z 21015KT 8000 TS SCT019 FEW021CB 26/21 Q1015
Conditions at: HUEN (ENTEBBE INTL ARP, UG) observed 1300 UTC 23 January 2019
Temperature: 26.0°C (79°F)
Dewpoint: 21.0°C (70°F) [RH = 74%]
Pressure (altimeter): 29.97 inches Hg (1015.0 mb)
Winds: from the SSW (210 degrees) at 17 MPH (15 knots; 7.7 m/s)
Visibility: 5 miles ( 8 km)
Ceiling: at least 12,000 feet AGL
Clouds: scattered clouds at 1900 feet AGL
few clouds at 2100 feet AGL
Weather: TS  (thunderstorm)

METAR text: HUEN 231230Z 20015KT 9000 TS SCT022 FEW024CB 27/21 Q1015
Conditions at: HUEN (ENTEBBE INTL ARP, UG) observed 1230 UTC 23 January 2019
Temperature: 27.0°C (81°F)
Dewpoint: 21.0°C (70°F) [RH = 70%]
Pressure (altimeter): 29.97 inches Hg (1015.0 mb)
Winds: from the SSW (200 degrees) at 17 MPH (15 knots; 7.7 m/s)
Visibility: 6 miles ( 9 km)
Ceiling: at least 12,000 feet AGL
Clouds: scattered clouds at 2200 feet AGL
few clouds at 2400 feet AGL
Weather: TS  (thunderstorm)

METAR text: HUEN 231100Z 23015KT 9999 SCT022 FEW024CB 26/22 Q1016
Conditions at: HUEN (ENTEBBE INTL ARP, UG) observed 1100 UTC 23 January 2019
Temperature: 26.0°C (79°F)
Dewpoint: 22.0°C (72°F) [RH = 79%]
Pressure (altimeter): 30.00 inches Hg (1016.0 mb)
Winds: from the SW (230 degrees) at 17 MPH (15 knots; 7.7 m/s)
Visibility: 6 or more miles (10+ km)
Ceiling: at least 12,000 feet AGL
Clouds: scattered clouds at 2200 feet AGL
few clouds at 2400 feet AGL
Weather: no significant weather observed at this time

METAR text: HUEN 231030Z 19015KT 9999 SCT022 FEW024CB 26/22 Q1016
Conditions at: HUEN (ENTEBBE INTL ARP, UG) observed 1030 UTC 23 January 2019
Temperature: 26.0°C (79°F)
Dewpoint: 22.0°C (72°F) [RH = 79%]
Pressure (altimeter): 30.00 inches Hg (1016.0 mb)
Winds: from the S (190 degrees) at 17 MPH (15 knots; 7.7 m/s)
Visibility: 6 or more miles (10+ km)
Ceiling: at least 12,000 feet AGL
Clouds: scattered clouds at 2200 feet AGL
few clouds at 2400 feet AGL
Weather: no significant weather observed at this time

METAR text: HUEN 231000Z 20009KT 9999 SCT022 FEW024CB 27/22 Q1017
Conditions at: HUEN (ENTEBBE INTL ARP, UG) observed 1000 UTC 23 January 2019
Temperature: 27.0°C (81°F)
Dewpoint: 22.0°C (72°F) [RH = 74%]
Pressure (altimeter): 30.03 inches Hg (1017.0 mb)
Winds: from the SSW (200 degrees) at 10 MPH (9 knots; 4.6 m/s)
Visibility: 6 or more miles (10+ km)
Ceiling: at least 12,000 feet AGL
Clouds: scattered clouds at 2200 feet AGL
few clouds at 2400 feet AGL
Weather: no significant weather observed at this time

METAR text: HUEN 230930Z 20010KT 9000 SCT022 FEW024CB BKN120 26/23 Q1017
Conditions at: HUEN (ENTEBBE INTL ARP, UG) observed 0930 UTC 23 January 2019
Temperature: 26.0°C (79°F)
Dewpoint: 23.0°C (73°F) [RH = 84%]
Pressure (altimeter): 30.03 inches Hg (1017.0 mb)
Winds: from the SSW (200 degrees) at 12 MPH (10 knots; 5.1 m/s)
Visibility: 6 miles ( 9 km)
Ceiling: 12000 feet AGL
Clouds: scattered clouds at 2200 feet AGL
few clouds at 2400 feet AGL
broken clouds at 12000 feet AGL
Weather: no significant weather observed at this time

METAR text: HUEN 230900Z 19013KT 9000 SCT021 FEW023CB BKN120 25/22 Q1017
Conditions at: HUEN (ENTEBBE INTL ARP, UG) observed 0900 UTC 23 January 2019
Temperature: 25.0°C (77°F)
Dewpoint: 22.0°C (72°F) [RH = 83%]
Pressure (altimeter): 30.03 inches Hg (1017.0 mb)
Winds: from the S (190 degrees) at 15 MPH (13 knots; 6.7 m/s)
Visibility: 6 miles ( 9 km)
Ceiling: 12000 feet AGL
Clouds: scattered clouds at 2100 feet AGL
few clouds at 2300 feet AGL
broken clouds at 12000 feet AGL
Weather: no significant weather observed at this time

METAR text: HUEN 230830Z 21010KT 9000 SCT019 FEW021CB BKN110 25/22 Q1018
Conditions at: HUEN (ENTEBBE INTL ARP, UG) observed 0830 UTC 23 January 2019
Temperature: 25.0°C (77°F)
Dewpoint: 22.0°C (72°F) [RH = 83%]
Pressure (altimeter): 30.06 inches Hg (1018.0 mb)
Winds: from the SSW (210 degrees) at 12 MPH (10 knots; 5.1 m/s)
Visibility: 6 miles ( 9 km)
Ceiling: 11000 feet AGL
Clouds: scattered clouds at 1900 feet AGL
few clouds at 2100 feet AGL
broken clouds at 11000 feet AGL
Weather: no significant weather observed at this time

METAR text: HUEN 230800Z 20008KT 9000 SCT020 FEW022CB BKN110 25/23 Q1018
Conditions at: HUEN (ENTEBBE INTL ARP, UG) observed 0800 UTC 23 January 2019
Temperature: 25.0°C (77°F)
Dewpoint: 23.0°C (73°F) [RH = 89%]
Pressure (altimeter): 30.06 inches Hg (1018.0 mb)
Winds: from the SSW (200 degrees) at 9 MPH (8 knots; 4.1 m/s)
Visibility: 6 miles ( 9 km)
Ceiling: 11000 feet AGL
Clouds: scattered clouds at 2000 feet AGL
few clouds at 2200 feet AGL
broken clouds at 11000 feet AGL
Weather: no significant weather observed at this time

METAR text: HUEN 230730Z 21009KT 9999 SCT020 FEW022CB 25/23 Q1018
Conditions at: HUEN (ENTEBBE INTL ARP, UG) observed 0730 UTC 23 January 2019
Temperature: 25.0°C (77°F)
Dewpoint: 23.0°C (73°F) [RH = 89%]
Pressure (altimeter): 30.06 inches Hg (1018.0 mb)
Winds: from the SSW (210 degrees) at 10 MPH (9 knots; 4.6 m/s)
Visibility: 6 or more miles (10+ km)
Ceiling: at least 12,000 feet AGL
Clouds: scattered clouds at 2000 feet AGL
few clouds at 2200 feet AGL
Weather: no significant weather observed at this time

METAR text: HUEN 230700Z 26005KT 9000 SCT019 FEW021CB 24/23 Q1018
Conditions at: HUEN (ENTEBBE INTL ARP, UG) observed 0700 UTC 23 January 2019
Temperature: 24.0°C (75°F)
Dewpoint: 23.0°C (73°F) [RH = 94%]
Pressure (altimeter): 30.06 inches Hg (1018.0 mb)
Winds: from the W (260 degrees) at 6 MPH (5 knots; 2.6 m/s)
Visibility: 6 miles ( 9 km)
Ceiling: at least 12,000 feet AGL
Clouds: scattered clouds at 1900 feet AGL
few clouds at 2100 feet AGL
Weather: no significant weather observed at this time

METAR text: HUEN 230630Z 25007KT 9000 FEW019 FEW021CB 24/23 Q1018
Conditions at: HUEN (ENTEBBE INTL ARP, UG) observed 0630 UTC 23 January 2019
Temperature: 24.0°C (75°F)
Dewpoint: 23.0°C (73°F) [RH = 94%]
Pressure (altimeter): 30.06 inches Hg (1018.0 mb)
Winds: from the WSW (250 degrees) at 8 MPH (7 knots; 3.6 m/s)
Visibility: 6 miles ( 9 km)
Ceiling: at least 12,000 feet AGL
Clouds: few clouds at 1900 feet AGL
few clouds at 2100 feet AGL
Weather: no significant weather observed at this time

METAR text: HUEN 230600Z 25002KT 9999 FEW019 FEW021CB 23/22 Q1018
Conditions at: HUEN (ENTEBBE INTL ARP, UG) observed 0600 UTC 23 January 2019
Temperature: 23.0°C (73°F)
Dewpoint: 22.0°C (72°F) [RH = 94%]
Pressure (altimeter): 30.06 inches Hg (1018.0 mb)
Winds: from the WSW (250 degrees) at 2 MPH (2 knots; 1.0 m/s)
Visibility: 6 or more miles (10+ km)
Ceiling: at least 12,000 feet AGL
Clouds: few clouds at 1900 feet AGL
few clouds at 2100 feet AGL
Weather: no significant weather observed at this time

METAR text: HUEN 230530Z 00000KT 9000 FEW019 FEW021CB 22/22 Q1018
Conditions at: HUEN (ENTEBBE INTL ARP, UG) observed 0530 UTC 23 January 2019
Temperature: 22.0°C (72°F)
Dewpoint: 22.0°C (72°F) [RH = 100%]
Pressure (altimeter): 30.06 inches Hg (1018.0 mb)
Winds: calm
Visibility: 6 miles ( 9 km)
Ceiling: at least 12,000 feet AGL
Clouds: few clouds at 1900 feet AGL
few clouds at 2100 feet AGL
Weather: no significant weather observed at this time

METAR text: HUEN 230500Z 34002KT 9000 FEW018 FEW020CB 21/21 Q1017
Conditions at: HUEN (ENTEBBE INTL ARP, UG) observed 0500 UTC 23 January 2019
Temperature: 21.0°C (70°F)
Dewpoint: 21.0°C (70°F) [RH = 100%]
Pressure (altimeter): 30.03 inches Hg (1017.0 mb)
Winds: from the NNW (340 degrees) at 2 MPH (2 knots; 1.0 m/s)
Visibility: 6 miles ( 9 km)
Ceiling: at least 12,000 feet AGL
Clouds: few clouds at 1800 feet AGL
few clouds at 2000 feet AGL
Weather: no significant weather observed at this time

METAR text: HUEN 230430Z 00000KT 9000 SCT018 FEW020CB 21/21 Q1017
Conditions at: HUEN (ENTEBBE INTL ARP, UG) observed 0430 UTC 23 January 2019
Temperature: 21.0°C (70°F)
Dewpoint: 21.0°C (70°F) [RH = 100%]
Pressure (altimeter): 30.03 inches Hg (1017.0 mb)
Winds: calm
Visibility: 6 miles ( 9 km)
Ceiling: at least 12,000 feet AGL
Clouds: scattered clouds at 1800 feet AGL
few clouds at 2000 feet AGL
Weather: no significant weather observed at this time

METAR text: HUEN 230400Z 34002KT 9000 SCT018 FEW020CB 21/21 Q1017
Conditions at: HUEN (ENTEBBE INTL ARP, UG) observed 0400 UTC 23 January 2019
Temperature: 21.0°C (70°F)
Dewpoint: 21.0°C (70°F) [RH = 100%]
Pressure (altimeter): 30.03 inches Hg (1017.0 mb)
Winds: from the NNW (340 degrees) at 2 MPH (2 knots; 1.0 m/s)
Visibility: 6 miles ( 9 km)
Ceiling: at least 12,000 feet AGL
Clouds: scattered clouds at 1800 feet AGL
few clouds at 2000 feet AGL
Weather: no significant weather observed at this time

METAR text: HUEN 230330Z 32002KT 9000 SCT018 FEW020CB 21/21 Q1016
Conditions at: HUEN (ENTEBBE INTL ARP, UG) observed 0330 UTC 23 January 2019
Temperature: 21.0°C (70°F)
Dewpoint: 21.0°C (70°F) [RH = 100%]
Pressure (altimeter): 30.00 inches Hg (1016.0 mb)
Winds: from the NW (320 degrees) at 2 MPH (2 knots; 1.0 m/s)
Visibility: 6 miles ( 9 km)
Ceiling: at least 12,000 feet AGL
Clouds: scattered clouds at 1800 feet AGL
few clouds at 2000 feet AGL
Weather: no significant weather observed at this time

METAR text: HUEN 230300Z 00000KT 7000 FEW018 FEW020CB 21/20 Q1016
Conditions at: HUEN (ENTEBBE INTL ARP, UG) observed 0300 UTC 23 January 2019
Temperature: 21.0°C (70°F)
Dewpoint: 20.0°C (68°F) [RH = 94%]
Pressure (altimeter): 30.00 inches Hg (1016.0 mb)
Winds: calm
Visibility: 4 miles ( 7 km)
Ceiling: at least 12,000 feet AGL
Clouds: few clouds at 1800 feet AGL
few clouds at 2000 feet AGL
Weather: no significant weather observed at this time

METAR text: HUEN 230230Z 34002KT 9000 FEW019 FEW021CB 21/21 Q1016
Conditions at: HUEN (ENTEBBE INTL ARP, UG) observed 0230 UTC 23 January 2019
Temperature: 21.0°C (70°F)
Dewpoint: 21.0°C (70°F) [RH = 100%]
Pressure (altimeter): 30.00 inches Hg (1016.0 mb)
Winds: from the NNW (340 degrees) at 2 MPH (2 knots; 1.0 m/s)
Visibility: 6 miles ( 9 km)
Ceiling: at least 12,000 feet AGL
Clouds: few clouds at 1900 feet AGL
few clouds at 2100 feet AGL
Weather: no significant weather observed at this time

METAR text: HUEN 230200Z 32002KT 9000 FEW019 FEW021CB 21/21 Q1015
Conditions at: HUEN (ENTEBBE INTL ARP, UG) observed 0200 UTC 23 January 2019
Temperature: 21.0°C (70°F)
Dewpoint: 21.0°C (70°F) [RH = 100%]
Pressure (altimeter): 29.97 inches Hg (1015.0 mb)
Winds: from the NW (320 degrees) at 2 MPH (2 knots; 1.0 m/s)
Visibility: 6 miles ( 9 km)
Ceiling: at least 12,000 feet AGL
Clouds: few clouds at 1900 feet AGL
few clouds at 2100 feet AGL
Weather: no significant weather observed at this time

METAR text: HUEN 230130Z 29004KT 9000 FEW019 FEW021CB 21/21 Q1015
Conditions at: HUEN (ENTEBBE INTL ARP, UG) observed 0130 UTC 23 January 2019
Temperature: 21.0°C (70°F)
Dewpoint: 21.0°C (70°F) [RH = 100%]
Pressure (altimeter): 29.97 inches Hg (1015.0 mb)
Winds: from the WNW (290 degrees) at 5 MPH (4 knots; 2.1 m/s)
Visibility: 6 miles ( 9 km)
Ceiling: at least 12,000 feet AGL
Clouds: few clouds at 1900 feet AGL
few clouds at 2100 feet AGL
Weather: no significant weather observed at this time

METAR text: HUEN 230100Z 00000KT 9999 FEW019 FEW021CB 21/20 Q1015
Conditions at: HUEN (ENTEBBE INTL ARP, UG) observed 0100 UTC 23 January 2019
Temperature: 21.0°C (70°F)
Dewpoint: 20.0°C (68°F) [RH = 94%]
Pressure (altimeter): 29.97 inches Hg (1015.0 mb)
Winds: calm
Visibility: 6 or more miles (10+ km)
Ceiling: at least 12,000 feet AGL
Clouds: few clouds at 1900 feet AGL
few clouds at 2100 feet AGL
Weather: no significant weather observed at this time

METAR text: HUEN 230030Z 36002KT 9999 FEW019 FEW021CB 21/20 Q1015
Conditions at: HUEN (ENTEBBE INTL ARP, UG) observed 0030 UTC 23 January 2019
Temperature: 21.0°C (70°F)
Dewpoint: 20.0°C (68°F) [RH = 94%]
Pressure (altimeter): 29.97 inches Hg (1015.0 mb)
Winds: from the N (360 degrees) at 2 MPH (2 knots; 1.0 m/s)
Visibility: 6 or more miles (10+ km)
Ceiling: at least 12,000 feet AGL
Clouds: few clouds at 1900 feet AGL
few clouds at 2100 feet AGL
Weather: no significant weather observed at this time

METAR text: HUEN 230000Z 36002KT 9000 FEW019 FEW021CB 21/20 Q1015
Conditions at: HUEN (ENTEBBE INTL ARP, UG) observed 0000 UTC 23 January 2019
Temperature: 21.0°C (70°F)
Dewpoint: 20.0°C (68°F) [RH = 94%]
Pressure (altimeter): 29.97 inches Hg (1015.0 mb)
Winds: from the N (360 degrees) at 2 MPH (2 knots; 1.0 m/s)
Visibility: 6 miles ( 9 km)
Ceiling: at least 12,000 feet AGL
Clouds: few clouds at 1900 feet AGL
few clouds at 2100 feet AGL
Weather: no significant weather observed at this time

METAR text: HUEN 222330Z 36002KT 8000 SCT019 FEW021CB 21/21 Q1015
Conditions at: HUEN (ENTEBBE INTL ARP, UG) observed 2330 UTC 22 January 2019
Temperature: 21.0°C (70°F)
Dewpoint: 21.0°C (70°F) [RH = 100%]
Pressure (altimeter): 29.97 inches Hg (1015.0 mb)
Winds: from the N (360 degrees) at 2 MPH (2 knots; 1.0 m/s)
Visibility: 5 miles ( 8 km)
Ceiling: at least 12,000 feet AGL
Clouds: scattered clouds at 1900 feet AGL
few clouds at 2100 feet AGL
Weather: no significant weather observed at this time

METAR text: HUEN 222300Z 00000KT 8000 SCT019 FEW021CB 21/21 Q1015
Conditions at: HUEN (ENTEBBE INTL ARP, UG) observed 2300 UTC 22 January 2019
Temperature: 21.0°C (70°F)
Dewpoint: 21.0°C (70°F) [RH = 100%]
Pressure (altimeter): 29.97 inches Hg (1015.0 mb)
Winds: calm
Visibility: 5 miles ( 8 km)
Ceiling: at least 12,000 feet AGL
Clouds: scattered clouds at 1900 feet AGL
few clouds at 2100 feet AGL
Weather: no significant weather observed at this time

METAR text: HUEN 222230Z 27002KT 9999 FEW020 FEW022CB 22/21 Q1015
Conditions at: HUEN (ENTEBBE INTL ARP, UG) observed 2230 UTC 22 January 2019
Temperature: 22.0°C (72°F)
Dewpoint: 21.0°C (70°F) [RH = 94%]
Pressure (altimeter): 29.97 inches Hg (1015.0 mb)
Winds: from the W (270 degrees) at 2 MPH (2 knots; 1.0 m/s)
Visibility: 6 or more miles (10+ km)
Ceiling: at least 12,000 feet AGL
Clouds: few clouds at 2000 feet AGL
few clouds at 2200 feet AGL
Weather: no significant weather observed at this time

METAR text: HUEN 222200Z 27003KT 9999 FEW020 FEW022CB 22/21 Q1015.6
Conditions at: HUEN (ENTEBBE INTL ARP, UG) observed 2200 UTC 22 January 2019
Temperature: 22.0°C (72°F)
Dewpoint: 21.0°C (70°F) [RH = 94%]
Pressure (altimeter): 29.99 inches Hg (1015.6 mb)
Winds: from the W (270 degrees) at 3 MPH (3 knots; 1.5 m/s)
Visibility: 6 or more miles (10+ km)
Ceiling: at least 12,000 feet AGL
Clouds: few clouds at 2000 feet AGL
few clouds at 2200 feet AGL
Weather: no significant weather observed at this time

METAR text: HUEN 222130Z 25003KT 9999 FEW020 FEW020CB 22/21 Q1015
Conditions at: HUEN (ENTEBBE INTL ARP, UG) observed 2130 UTC 22 January 2019
Temperature: 22.0°C (72°F)
Dewpoint: 21.0°C (70°F) [RH = 94%]
Pressure (altimeter): 29.97 inches Hg (1015.0 mb)
Winds: from the WSW (250 degrees) at 3 MPH (3 knots; 1.5 m/s)
Visibility: 6 or more miles (10+ km)
Ceiling: at least 12,000 feet AGL
Clouds: few clouds at 2000 feet AGL
few clouds at 2000 feet AGL
Weather: no significant weather observed at this time

METAR text: HUEN 222100Z 00000KT 9999 FEW020 FEW020CB 22/21 Q1016
Conditions at: HUEN (ENTEBBE INTL ARP, UG) observed 2100 UTC 22 January 2019
Temperature: 22.0°C (72°F)
Dewpoint: 21.0°C (70°F) [RH = 94%]
Pressure (altimeter): 30.00 inches Hg (1016.0 mb)
Winds: calm
Visibility: 6 or more miles (10+ km)
Ceiling: at least 12,000 feet AGL
Clouds: few clouds at 2000 feet AGL
few clouds at 2000 feet AGL
Weather: no significant weather observed at this time

METAR text: HUEN 222030Z 00000KT 9999 FEW021 FEW023CB 23/21 Q1016
Conditions at: HUEN (ENTEBBE INTL ARP, UG) observed 2030 UTC 22 January 2019
Temperature: 23.0°C (73°F)
Dewpoint: 21.0°C (70°F) [RH = 89%]
Pressure (altimeter): 30.00 inches Hg (1016.0 mb)
Winds: calm
Visibility: 6 or more miles (10+ km)
Ceiling: at least 12,000 feet AGL
Clouds: few clouds at 2100 feet AGL
few clouds at 2300 feet AGL
Weather: no significant weather observed at this time

METAR text: HUEN 222000Z 25003KT 9999 FEW021 FEW023CB 23/21 Q1016
Conditions at: HUEN (ENTEBBE INTL ARP, UG) observed 2000 UTC 22 January 2019
Temperature: 23.0°C (73°F)
Dewpoint: 21.0°C (70°F) [RH = 89%]
Pressure (altimeter): 30.00 inches Hg (1016.0 mb)
Winds: from the WSW (250 degrees) at 3 MPH (3 knots; 1.5 m/s)
Visibility: 6 or more miles (10+ km)
Ceiling: at least 12,000 feet AGL
Clouds: few clouds at 2100 feet AGL
few clouds at 2300 feet AGL
Weather: no significant weather observed at this time

METAR text: HUEN 221930Z 00000KT 9999 FEW021 FEW023CB 23/21 Q1016
Conditions at: HUEN (ENTEBBE INTL ARP, UG) observed 1930 UTC 22 January 2019
Temperature: 23.0°C (73°F)
Dewpoint: 21.0°C (70°F) [RH = 89%]
Pressure (altimeter): 30.00 inches Hg (1016.0 mb)
Winds: calm
Visibility: 6 or more miles (10+ km)
Ceiling: at least 12,000 feet AGL
Clouds: few clouds at 2100 feet AGL
few clouds at 2300 feet AGL
Weather: no significant weather observed at this time

METAR text: HUEN 221900Z 18003KT 9999 FEW021 FEW023CB 24/21 Q1016
Conditions at: HUEN (ENTEBBE INTL ARP, UG) observed 1900 UTC 22 January 2019
Temperature: 24.0°C (75°F)
Dewpoint: 21.0°C (70°F) [RH = 83%]
Pressure (altimeter): 30.00 inches Hg (1016.0 mb)
Winds: from the S (180 degrees) at 3 MPH (3 knots; 1.5 m/s)
Visibility: 6 or more miles (10+ km)
Ceiling: at least 12,000 feet AGL
Clouds: few clouds at 2100 feet AGL
few clouds at 2300 feet AGL
Weather: no significant weather observed at this time

METAR text: HUEN 221830Z 14005KT 9999 FEW022 FEW024CB 24/21 Q1016
Conditions at: HUEN (ENTEBBE INTL ARP, UG) observed 1830 UTC 22 January 2019
Temperature: 24.0°C (75°F)
Dewpoint: 21.0°C (70°F) [RH = 83%]
Pressure (altimeter): 30.00 inches Hg (1016.0 mb)
Winds: from the SE (140 degrees) at 6 MPH (5 knots; 2.6 m/s)
Visibility: 6 or more miles (10+ km)
Ceiling: at least 12,000 feet AGL
Clouds: few clouds at 2200 feet AGL
few clouds at 2400 feet AGL
Weather: no significant weather observed at this time

METAR text: HUEN 221800Z 14006KT 9999 FEW022 FEW024CB 24/20 Q1015
Conditions at: HUEN (ENTEBBE INTL ARP, UG) observed 1800 UTC 22 January 2019
Temperature: 24.0°C (75°F)
Dewpoint: 20.0°C (68°F) [RH = 78%]
Pressure (altimeter): 29.97 inches Hg (1015.0 mb)
Winds: from the SE (140 degrees) at 7 MPH (6 knots; 3.1 m/s)
Visibility: 6 or more miles (10+ km)
Ceiling: at least 12,000 feet AGL
Clouds: few clouds at 2200 feet AGL
few clouds at 2400 feet AGL
Weather: no significant weather observed at this time

METAR text: HUEN 221730Z 14006KT 9999 FEW022 FEW024CB 24/20 Q1015
Conditions at: HUEN (ENTEBBE INTL ARP, UG) observed 1730 UTC 22 January 2019
Temperature: 24.0°C (75°F)
Dewpoint: 20.0°C (68°F) [RH = 78%]
Pressure (altimeter): 29.97 inches Hg (1015.0 mb)
Winds: from the SE (140 degrees) at 7 MPH (6 knots; 3.1 m/s)
Visibility: 6 or more miles (10+ km)
Ceiling: at least 12,000 feet AGL
Clouds: few clouds at 2200 feet AGL
few clouds at 2400 feet AGL
Weather: no significant weather observed at this time

METAR text: HUEN 221700Z 14010KT 9999 FEW022 FEW024CB 24/20 Q1015
Conditions at: HUEN (ENTEBBE INTL ARP, UG) observed 1700 UTC 22 January 2019
Temperature: 24.0°C (75°F)
Dewpoint: 20.0°C (68°F) [RH = 78%]
Pressure (altimeter): 29.97 inches Hg (1015.0 mb)
Winds: from the SE (140 degrees) at 12 MPH (10 knots; 5.1 m/s)
Visibility: 6 or more miles (10+ km)
Ceiling: at least 12,000 feet AGL
Clouds: few clouds at 2200 feet AGL
few clouds at 2400 feet AGL
Weather: no significant weather observed at this time

METAR text: HUEN 221630Z 14008KT 9999 FEW022 FEW024CB 24/21 Q1015
Conditions at: HUEN (ENTEBBE INTL ARP, UG) observed 1630 UTC 22 January 2019
Temperature: 24.0°C (75°F)
Dewpoint: 21.0°C (70°F) [RH = 83%]
Pressure (altimeter): 29.97 inches Hg (1015.0 mb)
Winds: from the SE (140 degrees) at 9 MPH (8 knots; 4.1 m/s)
Visibility: 6 or more miles (10+ km)
Ceiling: at least 12,000 feet AGL
Clouds: few clouds at 2200 feet AGL
few clouds at 2400 feet AGL
Weather: no significant weather observed at this time

METAR text: HUEN 221600Z 16004KT 9999 SCT022 FEW024CB 25/21 Q1014
Conditions at: HUEN (ENTEBBE INTL ARP, UG) observed 1600 UTC 22 January 2019
Temperature: 25.0°C (77°F)
Dewpoint: 21.0°C (70°F) [RH = 79%]
Pressure (altimeter): 29.94 inches Hg (1014.0 mb)
Winds: from the SSE (160 degrees) at 5 MPH (4 knots; 2.1 m/s)
Visibility: 6 or more miles (10+ km)
Ceiling: at least 12,000 feet AGL
Clouds: scattered clouds at 2200 feet AGL
few clouds at 2400 feet AGL
Weather: no significant weather observed at this time

METAR text: HUEN 221530Z 11003KT 9999 -RA BKN022 FEW024CB 25/19 Q1014
Conditions at: HUEN (ENTEBBE INTL ARP, UG) observed 1530 UTC 22 January 2019
Temperature: 25.0°C (77°F)
Dewpoint: 19.0°C (66°F) [RH = 69%]
Pressure (altimeter): 29.94 inches Hg (1014.0 mb)
Winds: from the ESE (110 degrees) at 3 MPH (3 knots; 1.5 m/s)
Visibility: 6 or more miles (10+ km)
Ceiling: 2200 feet AGL
Clouds: broken clouds at 2200 feet AGL
few clouds at 2400 feet AGL
Weather: -RA  (light rain)

METAR text: HUEN 221500Z 16008KT 9999 FEW024 FEW026CB 26/21 Q1014
Conditions at: HUEN (ENTEBBE INTL ARP, UG) observed 1500 UTC 22 January 2019
Temperature: 26.0°C (79°F)
Dewpoint: 21.0°C (70°F) [RH = 74%]
Pressure (altimeter): 29.94 inches Hg (1014.0 mb)
Winds: from the SSE (160 degrees) at 9 MPH (8 knots; 4.1 m/s)
Visibility: 6 or more miles (10+ km)
Ceiling: at least 12,000 feet AGL
Clouds: few clouds at 2400 feet AGL
few clouds at 2600 feet AGL
Weather: no significant weather observed at this time

METAR text: HUEN 221430Z 16010KT 9999 FEW024 FEW026CB 26/21 Q1014
Conditions at: HUEN (ENTEBBE INTL ARP, UG) observed 1430 UTC 22 January 2019
Temperature: 26.0°C (79°F)
Dewpoint: 21.0°C (70°F) [RH = 74%]
Pressure (altimeter): 29.94 inches Hg (1014.0 mb)
Winds: from the SSE (160 degrees) at 12 MPH (10 knots; 5.1 m/s)
Visibility: 6 or more miles (10+ km)
Ceiling: at least 12,000 feet AGL
Clouds: few clouds at 2400 feet AGL
few clouds at 2600 feet AGL
Weather: no significant weather observed at this time

METAR text: HUEN 221400Z 18010KT 9999 FEW025 FEW027CB 27/21 Q1014
Conditions at: HUEN (ENTEBBE INTL ARP, UG) observed 1400 UTC 22 January 2019
Temperature: 27.0°C (81°F)
Dewpoint: 21.0°C (70°F) [RH = 70%]
Pressure (altimeter): 29.94 inches Hg (1014.0 mb)
Winds: from the S (180 degrees) at 12 MPH (10 knots; 5.1 m/s)
Visibility: 6 or more miles (10+ km)
Ceiling: at least 12,000 feet AGL
Clouds: few clouds at 2500 feet AGL
few clouds at 2700 feet AGL
Weather: no significant weather observed at this time

METAR text: HUEN 221330Z 18008KT 9999 FEW025 FEW027CB 27/20 Q1014
Conditions at: HUEN (ENTEBBE INTL ARP, UG) observed 1330 UTC 22 January 2019
Temperature: 27.0°C (81°F)
Dewpoint: 20.0°C (68°F) [RH = 66%]
Pressure (altimeter): 29.94 inches Hg (1014.0 mb)
Winds: from the S (180 degrees) at 9 MPH (8 knots; 4.1 m/s)
Visibility: 6 or more miles (10+ km)
Ceiling: at least 12,000 feet AGL
Clouds: few clouds at 2500 feet AGL
few clouds at 2700 feet AGL
Weather: no significant weather observed at this time

METAR text: HUEN 221300Z 16010KT 9999 FEW025 FEW027CB 27/21 Q1014
Conditions at: HUEN (ENTEBBE INTL ARP, UG) observed 1300 UTC 22 January 2019
Temperature: 27.0°C (81°F)
Dewpoint: 21.0°C (70°F) [RH = 70%]
Pressure (altimeter): 29.94 inches Hg (1014.0 mb)
Winds: from the SSE (160 degrees) at 12 MPH (10 knots; 5.1 m/s)
Visibility: 6 or more miles (10+ km)
Ceiling: at least 12,000 feet AGL
Clouds: few clouds at 2500 feet AGL
few clouds at 2700 feet AGL
Weather: no significant weather observed at this time

METAR text: HUEN 221230Z 16010KT 9999 FEW025 FEW027CB 27/20 Q1014
Conditions at: HUEN (ENTEBBE INTL ARP, UG) observed 1230 UTC 22 January 2019
Temperature: 27.0°C (81°F)
Dewpoint: 20.0°C (68°F) [RH = 66%]
Pressure (altimeter): 29.94 inches Hg (1014.0 mb)
Winds: from the SSE (160 degrees) at 12 MPH (10 knots; 5.1 m/s)
Visibility: 6 or more miles (10+ km)
Ceiling: at least 12,000 feet AGL
Clouds: few clouds at 2500 feet AGL
few clouds at 2700 feet AGL
Weather: no significant weather observed at this time

METAR text: HUEN 221130Z 16010KT 9999 FEW025 FEW027CB 27/21 Q1015
Conditions at: HUEN (ENTEBBE INTL ARP, UG) observed 1130 UTC 22 January 2019
Temperature: 27.0°C (81°F)
Dewpoint: 21.0°C (70°F) [RH = 70%]
Pressure (altimeter): 29.97 inches Hg (1015.0 mb)
Winds: from the SSE (160 degrees) at 12 MPH (10 knots; 5.1 m/s)
Visibility: 6 or more miles (10+ km)
Ceiling: at least 12,000 feet AGL
Clouds: few clouds at 2500 feet AGL
few clouds at 2700 feet AGL
Weather: no significant weather observed at this time

METAR text: HUEN 221100Z 18008KT 9999 FEW025 FEW027CB 27/21 Q1015
Conditions at: HUEN (ENTEBBE INTL ARP, UG) observed 1100 UTC 22 January 2019
Temperature: 27.0°C (81°F)
Dewpoint: 21.0°C (70°F) [RH = 70%]
Pressure (altimeter): 29.97 inches Hg (1015.0 mb)
Winds: from the S (180 degrees) at 9 MPH (8 knots; 4.1 m/s)
Visibility: 6 or more miles (10+ km)
Ceiling: at least 12,000 feet AGL
Clouds: few clouds at 2500 feet AGL
few clouds at 2700 feet AGL
Weather: no significant weather observed at this time

METAR text: HUEN 221030Z 18008KT 9999 FEW025 FEW027CB 27/21 Q1016
Conditions at: HUEN (ENTEBBE INTL ARP, UG) observed 1030 UTC 22 January 2019
Temperature: 27.0°C (81°F)
Dewpoint: 21.0°C (70°F) [RH = 70%]
Pressure (altimeter): 30.00 inches Hg (1016.0 mb)
Winds: from the S (180 degrees) at 9 MPH (8 knots; 4.1 m/s)
Visibility: 6 or more miles (10+ km)
Ceiling: at least 12,000 feet AGL
Clouds: few clouds at 2500 feet AGL
few clouds at 2700 feet AGL
Weather: no significant weather observed at this time

METAR text: HUEN 221000Z 21011KT 9999 FEW025 FEW027CB 27/21 Q1017
Conditions at: HUEN (ENTEBBE INTL ARP, UG) observed 1000 UTC 22 January 2019
Temperature: 27.0°C (81°F)
Dewpoint: 21.0°C (70°F) [RH = 70%]
Pressure (altimeter): 30.03 inches Hg (1017.0 mb)
Winds: from the SSW (210 degrees) at 13 MPH (11 knots; 5.7 m/s)
Visibility: 6 or more miles (10+ km)
Ceiling: at least 12,000 feet AGL
Clouds: few clouds at 2500 feet AGL
few clouds at 2700 feet AGL
Weather: no significant weather observed at this time

METAR text: HUEN 220930Z 18008KT 9999 FEW025 FEW027CB 27/21 Q1017
Conditions at: HUEN (ENTEBBE INTL ARP, UG) observed 0930 UTC 22 January 2019
Temperature: 27.0°C (81°F)
Dewpoint: 21.0°C (70°F) [RH = 70%]
Pressure (altimeter): 30.03 inches Hg (1017.0 mb)
Winds: from the S (180 degrees) at 9 MPH (8 knots; 4.1 m/s)
Visibility: 6 or more miles (10+ km)
Ceiling: at least 12,000 feet AGL
Clouds: few clouds at 2500 feet AGL
few clouds at 2700 feet AGL
Weather: no significant weather observed at this time

METAR text: HUEN 220900Z 23010KT 9999 FEW024 FEW026CB 26/21 Q1017
Conditions at: HUEN (ENTEBBE INTL ARP, UG) observed 0900 UTC 22 January 2019
Temperature: 26.0°C (79°F)
Dewpoint: 21.0°C (70°F) [RH = 74%]
Pressure (altimeter): 30.03 inches Hg (1017.0 mb)
Winds: from the SW (230 degrees) at 12 MPH (10 knots; 5.1 m/s)
Visibility: 6 or more miles (10+ km)
Ceiling: at least 12,000 feet AGL
Clouds: few clouds at 2400 feet AGL
few clouds at 2600 feet AGL
Weather: no significant weather observed at this time

Forecast for: HUEN (ENTEBBE INTL ARP, UG)
Text: TAF HUEN 231700Z 2318/2424 20004KT 9999 FEW020 FEW022CB
Forecast period: 1800 to 2100 UTC 23 January 2019
Forecast type: FROM: standard forecast or significant change
Winds: from the SSW (200 degrees) at 5 MPH (4 knots; 2.1 m/s)
Visibility: 6 or more miles 10+ km)
Ceiling: at least 12,000 feet AGL
Clouds: few clouds at 2000 feet AGL
few clouds at 2200 feet AGL
Weather: no significant weather forecast for this period
Text: BECMG 2321/2324 34006KT 9000 SCT018 FEW020CB
Forecast period: 2100 UTC 23 January 2019 to 0800 UTC 24 January 2019
Forecast type: BECOMING: Conditions expected to become as follows by 0000 UTC 24 January 2019
Winds: from the NNW (340 degrees) at 7 MPH (6 knots; 3.1 m/s)
Visibility: 6 miles (9 km)
Ceiling: at least 12,000 feet AGL
Clouds: scattered clouds at 1800 feet AGL
few clouds at 2000 feet AGL
Weather: no significant weather forecast for this period
Text: TEMPO 2401/2407 VRB08G20KT 8000 TSRA BKN016 FEW018CB OVC090
Forecast period: 0100 to 0700 UTC 24 January 2019
Forecast type: TEMPORARY: The following changes expected for less than half the time period
Winds: variable direction winds at 9 MPH (8 knots; 4.1 m/s)
gusting to 23 MPH (20 knots; 10.3 m/s)
Visibility: 5 miles (8 km)
Ceiling: 1600 feet AGL
Clouds: broken clouds at 1600 feet AGL
few clouds at 1800 feet AGL
overcast cloud deck at 9000 feet AGL
Weather: TSRA  (rain associated with thunderstorm(s))
Text: BECMG 2408/2412 17011KT 9999 -RA SCT021 FEW023CB FM 241600 22004KT -TS FEW020 FEW022CB
Forecast period: 0800 to 1600 UTC 24 January 2019
Forecast type: BECOMING: Conditions expected to become as follows by 1200 UTC 24 January 2019
Winds: from the S (170 degrees) at 13 MPH (11 knots; 5.7 m/s)
Visibility: 6 or more miles 10+ km)
Ceiling: at least 12,000 feet AGL
Clouds: scattered clouds at 2100 feet AGL
few clouds at 2300 feet AGL
Weather: -RA  (light rain)
Text: BECMG 2421/2424 36005KT 9000 FEW019 FEW021CB
Forecast period: 1600 to 2100 UTC 24 January 2019
Forecast type: FROM: standard forecast or significant change
Winds: from the SW (220 degrees) at 5 MPH (4 knots; 2.1 m/s)
Visibility: missing
Ceiling: at least 12,000 feet AGL
Clouds: few clouds at 2000 feet AGL
few clouds at 2200 feet AGL
Weather: -TS  (unknown weather)
Text:
Forecast period: 2100 UTC 24 January 2019 to 0000 UTC 25 January 2019
Forecast type: BECOMING: Conditions expected to become as follows by 0000 UTC 25 January 2019
Winds: from the N (360 degrees) at 6 MPH (5 knots; 2.6 m/s)
Visibility: 6 miles (9 km)
Ceiling: at least 12,000 feet AGL
Clouds: few clouds at 1900 feet AGL
few clouds at 2100 feet AGL
Weather: -TS  (unknown weather)